sensor_id;sensor_type;location;lat;lon;timestamp;pressure;altitude;pressure_sealevel;temperature;humidity
12349;BME280;5974;42.710;27.258;2023-04-01T00:01:41;99520.66;;;6.06;100.00
12349;BME280;5974;42.710;27.258;2023-04-01T00:04:07;99514.78;;;5.44;100.00
12349;BME280;5974;42.710;27.258;2023-04-01T00:06:34;99515.63;;;6.02;100.00
12349;BME280;5974;42.710;27.258;2023-04-01T00:09:03;99514.34;;;6.15;100.00
12349;BME280;5974;42.710;27.258;2023-04-01T00:11:30;99517.72;;;6.17;100.00
12349;BME280;5974;42.710;27.258;2023-04-01T00:13:57;99512.44;;;6.20;100.00
12349;BME280;5974;42.710;27.258;2023-04-01T00:16:24;99512.72;;;6.37;100.00
12349;BME280;5974;42.710;27.258;2023-04-01T00:18:51;99507.47;;;6.38;100.00
12349;BME280;5974;42.710;27.258;2023-04-01T00:21:18;99503.78;;;6.45;100.00
12349;BME280;5974;42.710;27.258;2023-04-01T00:23:45;99505.53;;;6.45;100.00
12349;BME280;5974;42.710;27.258;2023-04-01T00:26:14;99513.31;;;6.45;100.00
12349;BME280;5974;42.710;27.258;2023-04-01T00:28:44;99520.38;;;6.66;100.00
12349;BME280;5974;42.710;27.258;2023-04-01T00:31:11;99485.81;;;6.39;100.00
12349;BME280;5974;42.710;27.258;2023-04-01T00:33:39;99510.88;;;6.65;100.00
12349;BME280;5974;42.710;27.258;2023-04-01T00:36:08;99496.63;;;6.77;100.00
12349;BME280;5974;42.710;27.258;2023-04-01T00:38:36;99498.47;;;6.98;100.00
12349;BME280;5974;42.710;27.258;2023-04-01T00:41:03;99496.78;;;6.97;100.00
12349;BME280;5974;42.710;27.258;2023-04-01T00:43:33;99490.34;;;7.07;100.00
12349;BME280;5974;42.710;27.258;2023-04-01T00:46:00;99471.69;;;6.96;100.00
12349;BME280;5974;42.710;27.258;2023-04-01T00:48:29;99468.81;;;7.03;100.00
12349;BME280;5974;42.710;27.258;2023-04-01T00:51:01;99472.31;;;7.02;100.00
12349;BME280;5974;42.710;27.258;2023-04-01T00:53:30;99469.00;;;6.74;100.00
12349;BME280;5974;42.710;27.258;2023-04-01T00:56:01;99477.84;;;6.19;100.00
12349;BME280;5974;42.710;27.258;2023-04-01T00:58:33;99480.25;;;6.75;100.00
12349;BME280;5974;42.710;27.258;2023-04-01T01:01:02;99474.19;;;6.49;100.00
12349;BME280;5974;42.710;27.258;2023-04-01T01:03:29;99477.66;;;6.75;100.00
12349;BME280;5974;42.710;27.258;2023-04-01T01:06:11;99473.22;;;6.77;100.00
12349;BME280;5974;42.710;27.258;2023-04-01T01:09:07;99469.28;;;6.91;100.00
12349;BME280;5974;42.710;27.258;2023-04-01T01:11:41;99453.69;;;6.91;100.00
12349;BME280;5974;42.710;27.258;2023-04-01T01:14:19;99442.88;;;7.02;100.00
12349;BME280;5974;42.710;27.258;2023-04-01T01:16:53;99444.38;;;7.07;100.00
12349;BME280;5974;42.710;27.258;2023-04-01T01:22:42;99423.16;;;6.96;100.00
12349;BME280;5974;42.710;27.258;2023-04-01T01:25:35;99430.47;;;6.39;100.00
12349;BME280;5974;42.710;27.258;2023-04-01T01:28:22;99441.91;;;6.58;100.00
12349;BME280;5974;42.710;27.258;2023-04-01T01:30:58;99443.22;;;6.20;100.00
12349;BME280;5974;42.710;27.258;2023-04-01T01:33:47;99456.75;;;6.54;100.00
12349;BME280;5974;42.710;27.258;2023-04-01T01:36:19;99459.66;;;6.70;100.00
12349;BME280;5974;42.710;27.258;2023-04-01T01:38:48;99454.78;;;6.84;100.00
12349;BME280;5974;42.710;27.258;2023-04-01T01:41:17;99455.56;;;6.86;100.00
12349;BME280;5974;42.710;27.258;2023-04-01T01:43:47;99461.69;;;6.85;100.00
12349;BME280;5974;42.710;27.258;2023-04-01T01:46:19;99451.31;;;6.85;100.00
12349;BME280;5974;42.710;27.258;2023-04-01T01:48:48;99443.78;;;5.76;100.00
12349;BME280;5974;42.710;27.258;2023-04-01T01:51:18;99431.00;;;5.97;100.00
12349;BME280;5974;42.710;27.258;2023-04-01T01:53:46;99442.69;;;5.83;100.00
12349;BME280;5974;42.710;27.258;2023-04-01T01:56:13;99442.38;;;5.93;100.00
12349;BME280;5974;42.710;27.258;2023-04-01T01:58:43;99419.34;;;5.83;100.00
12349;BME280;5974;42.710;27.258;2023-04-01T02:01:13;99448.84;;;6.07;100.00
12349;BME280;5974;42.710;27.258;2023-04-01T02:03:42;99447.09;;;6.07;100.00
12349;BME280;5974;42.710;27.258;2023-04-01T02:06:14;99448.88;;;6.31;100.00
12349;BME280;5974;42.710;27.258;2023-04-01T02:08:45;99437.31;;;6.40;100.00
12349;BME280;5974;42.710;27.258;2023-04-01T02:11:17;99433.47;;;6.51;100.00
12349;BME280;5974;42.710;27.258;2023-04-01T02:13:48;99443.16;;;6.46;100.00
12349;BME280;5974;42.710;27.258;2023-04-01T02:16:20;99435.22;;;6.51;100.00
12349;BME280;5974;42.710;27.258;2023-04-01T02:18:50;99427.09;;;6.60;100.00
12349;BME280;5974;42.710;27.258;2023-04-01T02:21:21;99427.97;;;6.61;100.00
12349;BME280;5974;42.710;27.258;2023-04-01T02:23:52;99423.69;;;5.82;100.00
12349;BME280;5974;42.710;27.258;2023-04-01T02:26:20;99428.03;;;5.82;100.00
12349;BME280;5974;42.710;27.258;2023-04-01T02:28:49;99423.88;;;5.76;100.00
12349;BME280;5974;42.710;27.258;2023-04-01T02:31:17;99430.75;;;6.05;100.00
12349;BME280;5974;42.710;27.258;2023-04-01T02:33:44;99421.38;;;6.26;100.00
12349;BME280;5974;42.710;27.258;2023-04-01T02:36:13;99413.13;;;5.88;100.00
12349;BME280;5974;42.710;27.258;2023-04-01T02:38:41;99416.66;;;6.12;100.00
12349;BME280;5974;42.710;27.258;2023-04-01T02:41:10;99417.19;;;6.22;100.00
12349;BME280;5974;42.710;27.258;2023-04-01T02:43:38;99409.16;;;6.05;100.00
12349;BME280;5974;42.710;27.258;2023-04-01T02:46:05;99399.34;;;5.05;100.00
12349;BME280;5974;42.710;27.258;2023-04-01T02:48:32;99399.03;;;5.43;100.00
12349;BME280;5974;42.710;27.258;2023-04-01T02:50:58;99401.25;;;5.27;100.00
12349;BME280;5974;42.710;27.258;2023-04-01T02:53:25;99405.56;;;5.28;100.00
12349;BME280;5974;42.710;27.258;2023-04-01T02:55:52;99401.63;;;5.43;100.00
12349;BME280;5974;42.710;27.258;2023-04-01T02:58:20;99398.44;;;5.61;100.00
12349;BME280;5974;42.710;27.258;2023-04-01T03:00:47;99398.84;;;5.75;100.00
12349;BME280;5974;42.710;27.258;2023-04-01T03:03:14;99395.72;;;5.66;100.00
12349;BME280;5974;42.710;27.258;2023-04-01T03:05:41;99403.69;;;5.87;100.00
12349;BME280;5974;42.710;27.258;2023-04-01T03:08:08;99404.03;;;5.49;100.00
12349;BME280;5974;42.710;27.258;2023-04-01T03:10:35;99413.41;;;5.79;100.00
12349;BME280;5974;42.710;27.258;2023-04-01T03:13:02;99387.31;;;5.04;100.00
12349;BME280;5974;42.710;27.258;2023-04-01T03:15:31;99411.00;;;5.47;100.00
12349;BME280;5974;42.710;27.258;2023-04-01T03:17:57;99403.03;;;5.79;100.00
12349;BME280;5974;42.710;27.258;2023-04-01T03:20:24;99394.13;;;5.88;100.00
12349;BME280;5974;42.710;27.258;2023-04-01T03:22:51;99386.47;;;5.31;100.00
12349;BME280;5974;42.710;27.258;2023-04-01T03:25:18;99396.63;;;5.09;100.00
12349;BME280;5974;42.710;27.258;2023-04-01T03:27:45;99396.19;;;4.66;100.00
12349;BME280;5974;42.710;27.258;2023-04-01T03:30:12;99397.84;;;4.98;100.00
12349;BME280;5974;42.710;27.258;2023-04-01T03:32:40;99398.19;;;5.15;100.00
12349;BME280;5974;42.710;27.258;2023-04-01T03:35:08;99399.88;;;5.16;100.00
12349;BME280;5974;42.710;27.258;2023-04-01T03:37:35;99384.94;;;5.24;100.00
12349;BME280;5974;42.710;27.258;2023-04-01T03:40:03;99388.84;;;5.37;100.00
12349;BME280;5974;42.710;27.258;2023-04-01T03:42:30;99389.16;;;5.54;100.00
12349;BME280;5974;42.710;27.258;2023-04-01T03:44:58;99378.09;;;5.75;100.00
12349;BME280;5974;42.710;27.258;2023-04-01T03:47:24;99370.69;;;5.65;100.00
12349;BME280;5974;42.710;27.258;2023-04-01T03:49:53;99363.22;;;5.00;100.00
12349;BME280;5974;42.710;27.258;2023-04-01T03:52:20;99363.31;;;5.53;100.00
12349;BME280;5974;42.710;27.258;2023-04-01T03:54:47;99367.78;;;5.74;100.00
12349;BME280;5974;42.710;27.258;2023-04-01T03:57:14;99367.63;;;5.78;100.00
12349;BME280;5974;42.710;27.258;2023-04-01T03:59:41;99375.31;;;5.55;100.00
12349;BME280;5974;42.710;27.258;2023-04-01T04:02:07;99376.72;;;5.65;100.00
12349;BME280;5974;42.710;27.258;2023-04-01T04:04:34;99379.50;;;5.87;100.00
12349;BME280;5974;42.710;27.258;2023-04-01T04:07:03;99381.13;;;5.89;100.00
12349;BME280;5974;42.710;27.258;2023-04-01T04:09:30;99386.84;;;5.99;100.00
12349;BME280;5974;42.710;27.258;2023-04-01T04:11:57;99370.38;;;6.25;100.00
12349;BME280;5974;42.710;27.258;2023-04-01T04:14:24;99379.84;;;6.50;100.00
12349;BME280;5974;42.710;27.258;2023-04-01T04:16:51;99370.38;;;6.73;100.00
12349;BME280;5974;42.710;27.258;2023-04-01T04:19:18;99367.94;;;6.68;100.00
12349;BME280;5974;42.710;27.258;2023-04-01T04:21:45;99359.72;;;7.24;100.00
12349;BME280;5974;42.710;27.258;2023-04-01T04:24:13;99361.28;;;7.71;100.00
12349;BME280;5974;42.710;27.258;2023-04-01T04:26:40;99366.00;;;8.24;100.00
12349;BME280;5974;42.710;27.258;2023-04-01T04:29:07;99353.69;;;8.47;100.00
12349;BME280;5974;42.710;27.258;2023-04-01T04:31:33;99358.59;;;8.74;100.00
12349;BME280;5974;42.710;27.258;2023-04-01T04:34:00;99351.25;;;9.19;100.00
12349;BME280;5974;42.710;27.258;2023-04-01T04:36:27;99358.31;;;9.70;100.00
12349;BME280;5974;42.710;27.258;2023-04-01T04:38:54;99356.34;;;10.26;100.00
12349;BME280;5974;42.710;27.258;2023-04-01T04:41:24;99340.13;;;10.85;100.00
12349;BME280;5974;42.710;27.258;2023-04-01T04:43:52;99320.00;;;11.49;100.00
12349;BME280;5974;42.710;27.258;2023-04-01T04:46:20;99326.72;;;11.98;100.00
12349;BME280;5974;42.710;27.258;2023-04-01T04:48:47;99319.03;;;11.81;100.00
12349;BME280;5974;42.710;27.258;2023-04-01T04:51:15;99309.56;;;12.22;100.00
12349;BME280;5974;42.710;27.258;2023-04-01T04:53:42;99301.69;;;12.50;100.00
12349;BME280;5974;42.710;27.258;2023-04-01T04:56:10;99291.56;;;12.73;100.00
12349;BME280;5974;42.710;27.258;2023-04-01T04:58:38;99281.00;;;12.60;100.00
12349;BME280;5974;42.710;27.258;2023-04-01T05:01:07;99290.16;;;11.97;100.00
12349;BME280;5974;42.710;27.258;2023-04-01T05:03:34;99255.38;;;11.65;100.00
12349;BME280;5974;42.710;27.258;2023-04-01T05:06:01;99285.00;;;12.09;100.00
12349;BME280;5974;42.710;27.258;2023-04-01T05:08:28;99264.44;;;12.17;100.00
12349;BME280;5974;42.710;27.258;2023-04-01T05:10:55;99281.56;;;12.37;100.00
12349;BME280;5974;42.710;27.258;2023-04-01T05:13:22;99278.47;;;12.44;100.00
12349;BME280;5974;42.710;27.258;2023-04-01T05:15:50;99272.41;;;12.30;100.00
12349;BME280;5974;42.710;27.258;2023-04-01T05:18:17;99273.91;;;12.48;100.00
12349;BME280;5974;42.710;27.258;2023-04-01T05:20:47;99257.88;;;12.67;100.00
12349;BME280;5974;42.710;27.258;2023-04-01T05:23:15;99259.16;;;13.15;100.00
12349;BME280;5974;42.710;27.258;2023-04-01T05:25:42;99249.44;;;13.81;100.00
12349;BME280;5974;42.710;27.258;2023-04-01T05:28:10;99250.25;;;15.06;100.00
12349;BME280;5974;42.710;27.258;2023-04-01T05:30:40;99241.88;;;16.39;100.00
12349;BME280;5974;42.710;27.258;2023-04-01T05:33:09;99224.72;;;18.24;100.00
12349;BME280;5974;42.710;27.258;2023-04-01T05:35:37;99221.22;;;17.94;97.37
12349;BME280;5974;42.710;27.258;2023-04-01T05:38:04;99215.06;;;16.99;97.77
12349;BME280;5974;42.710;27.258;2023-04-01T05:40:31;99205.41;;;16.11;100.00
12349;BME280;5974;42.710;27.258;2023-04-01T05:42:59;99208.91;;;16.67;100.00
12349;BME280;5974;42.710;27.258;2023-04-01T05:45:26;99216.31;;;16.06;100.00
12349;BME280;5974;42.710;27.258;2023-04-01T05:47:53;99204.69;;;17.07;100.00
12349;BME280;5974;42.710;27.258;2023-04-01T05:50:21;99183.66;;;17.90;98.67
12349;BME280;5974;42.710;27.258;2023-04-01T05:52:48;99197.09;;;18.87;91.17
12349;BME280;5974;42.710;27.258;2023-04-01T05:55:15;99184.06;;;18.25;89.92
12349;BME280;5974;42.710;27.258;2023-04-01T05:57:44;99187.22;;;19.18;87.23
12349;BME280;5974;42.710;27.258;2023-04-01T06:00:12;99168.41;;;17.82;87.72
12349;BME280;5974;42.710;27.258;2023-04-01T06:02:39;99183.66;;;17.17;93.37
12349;BME280;5974;42.710;27.258;2023-04-01T06:05:13;99194.94;;;17.19;95.35
12349;BME280;5974;42.710;27.258;2023-04-01T06:07:42;99190.59;;;16.86;96.95
12349;BME280;5974;42.710;27.258;2023-04-01T06:10:12;99187.22;;;16.30;98.45
12349;BME280;5974;42.710;27.258;2023-04-01T06:12:52;99211.84;;;15.15;100.00
12349;BME280;5974;42.710;27.258;2023-04-01T06:15:33;99207.72;;;15.00;100.00
12349;BME280;5974;42.710;27.258;2023-04-01T06:21:19;99203.69;;;15.07;100.00
12349;BME280;5974;42.710;27.258;2023-04-01T06:24:05;99209.50;;;14.14;100.00
12349;BME280;5974;42.710;27.258;2023-04-01T06:26:39;99209.41;;;15.01;100.00
12349;BME280;5974;42.710;27.258;2023-04-01T06:29:41;99210.16;;;16.95;100.00
12349;BME280;5974;42.710;27.258;2023-04-01T06:32:25;99200.13;;;15.43;100.00
12349;BME280;5974;42.710;27.258;2023-04-01T06:35:14;99206.94;;;14.87;100.00
12349;BME280;5974;42.710;27.258;2023-04-01T06:37:55;99209.06;;;15.64;100.00
12349;BME280;5974;42.710;27.258;2023-04-01T06:41:02;99197.38;;;16.35;100.00
12349;BME280;5974;42.710;27.258;2023-04-01T06:43:41;99195.41;;;17.45;100.00
12349;BME280;5974;42.710;27.258;2023-04-01T06:46:17;99178.09;;;19.88;99.19
12349;BME280;5974;42.710;27.258;2023-04-01T06:49:02;99175.00;;;22.24;83.37
12349;BME280;5974;42.710;27.258;2023-04-01T06:51:38;99186.34;;;23.34;70.83
12349;BME280;5974;42.710;27.258;2023-04-01T06:54:11;99188.75;;;22.45;71.03
12349;BME280;5974;42.710;27.258;2023-04-01T06:56:44;99176.72;;;21.55;72.50
12349;BME280;5974;42.710;27.258;2023-04-01T06:59:15;99178.19;;;21.15;75.26
12349;BME280;5974;42.710;27.258;2023-04-01T07:01:45;99178.50;;;20.39;79.77
12349;BME280;5974;42.710;27.258;2023-04-01T07:04:15;99177.16;;;20.53;82.10
12349;BME280;5974;42.710;27.258;2023-04-01T07:06:46;99189.66;;;20.70;82.11
12349;BME280;5974;42.710;27.258;2023-04-01T07:09:18;99191.00;;;21.98;77.47
12349;BME280;5974;42.710;27.258;2023-04-01T07:11:47;99183.75;;;22.84;74.63
12349;BME280;5974;42.710;27.258;2023-04-01T07:14:20;99173.59;;;22.45;76.70
12349;BME280;5974;42.710;27.258;2023-04-01T07:16:51;99169.56;;;26.98;64.65
12349;BME280;5974;42.710;27.258;2023-04-01T07:19:25;99167.00;;;26.90;60.34
12349;BME280;5974;42.710;27.258;2023-04-01T07:21:56;99156.69;;;28.06;56.99
12349;BME280;5974;42.710;27.258;2023-04-01T07:24:27;99163.66;;;27.73;56.39
12349;BME280;5974;42.710;27.258;2023-04-01T07:26:57;99161.59;;;27.75;53.70
12349;BME280;5974;42.710;27.258;2023-04-01T07:29:26;99157.66;;;28.26;52.99
12349;BME280;5974;42.710;27.258;2023-04-01T07:32:18;99155.81;;;27.71;53.19
12349;BME280;5974;42.710;27.258;2023-04-01T07:34:55;99148.56;;;26.51;56.65
12349;BME280;5974;42.710;27.258;2023-04-01T07:37:28;99140.53;;;25.93;58.59
12349;BME280;5974;42.710;27.258;2023-04-01T07:40:05;99126.88;;;28.76;53.73
12349;BME280;5974;42.710;27.258;2023-04-01T07:42:45;99128.84;;;27.37;53.17
12349;BME280;5974;42.710;27.258;2023-04-01T07:45:19;99115.22;;;26.24;56.04
12349;BME280;5974;42.710;27.258;2023-04-01T07:48:00;99122.69;;;25.85;57.94
12349;BME280;5974;42.710;27.258;2023-04-01T07:50:34;99129.69;;;24.80;58.80
12349;BME280;5974;42.710;27.258;2023-04-01T07:53:11;99125.44;;;23.78;61.24
12349;BME280;5974;42.710;27.258;2023-04-01T07:55:45;99120.28;;;23.19;66.01
12349;BME280;5974;42.710;27.258;2023-04-01T07:58:24;99118.13;;;21.99;68.37
12349;BME280;5974;42.710;27.258;2023-04-01T08:00:59;99124.97;;;22.01;69.30
12349;BME280;5974;42.710;27.258;2023-04-01T08:03:43;99117.88;;;21.58;72.37
12349;BME280;5974;42.710;27.258;2023-04-01T08:06:20;99120.34;;;21.60;72.13
12349;BME280;5974;42.710;27.258;2023-04-01T08:08:59;99127.22;;;21.45;72.77
12349;BME280;5974;42.710;27.258;2023-04-01T08:11:39;99121.25;;;20.72;72.77
12349;BME280;5974;42.710;27.258;2023-04-01T08:14:15;99106.56;;;21.13;74.24
12349;BME280;5974;42.710;27.258;2023-04-01T08:16:48;99107.50;;;20.05;77.31
12349;BME280;5974;42.710;27.258;2023-04-01T08:19:28;99104.88;;;20.32;78.58
12349;BME280;5974;42.710;27.258;2023-04-01T08:21:58;99106.72;;;20.49;80.35
12349;BME280;5974;42.710;27.258;2023-04-01T08:24:36;99094.53;;;21.27;76.64
12349;BME280;5974;42.710;27.258;2023-04-01T08:27:11;99092.84;;;21.08;77.59
12349;BME280;5974;42.710;27.258;2023-04-01T08:29:44;99077.06;;;21.06;79.14
12349;BME280;5974;42.710;27.258;2023-04-01T08:32:16;99073.19;;;21.70;74.13
12349;BME280;5974;42.710;27.258;2023-04-01T08:34:48;99077.16;;;21.66;74.92
12349;BME280;5974;42.710;27.258;2023-04-01T08:37:20;99068.66;;;21.11;75.51
12349;BME280;5974;42.710;27.258;2023-04-01T08:39:51;99070.41;;;21.46;73.62
12349;BME280;5974;42.710;27.258;2023-04-01T08:42:48;99060.19;;;21.59;74.73
12349;BME280;5974;42.710;27.258;2023-04-01T08:45:29;99060.09;;;21.77;75.55
12349;BME280;5974;42.710;27.258;2023-04-01T08:54:13;99052.03;;;20.91;75.41
12349;BME280;5974;42.710;27.258;2023-04-01T08:56:49;99043.72;;;20.24;78.65
12349;BME280;5974;42.710;27.258;2023-04-01T08:59:30;99034.69;;;21.05;76.98
12349;BME280;5974;42.710;27.258;2023-04-01T09:02:37;99028.25;;;21.59;75.78
12349;BME280;5974;42.710;27.258;2023-04-01T09:05:25;99041.13;;;21.02;75.40
12349;BME280;5974;42.710;27.258;2023-04-01T09:08:03;99043.75;;;21.38;77.14
12349;BME280;5974;42.710;27.258;2023-04-01T09:10:57;99035.09;;;21.36;76.13
12349;BME280;5974;42.710;27.258;2023-04-01T09:13:42;99039.75;;;22.51;73.64
12349;BME280;5974;42.710;27.258;2023-04-01T09:16:35;99026.28;;;22.61;73.19
12349;BME280;5974;42.710;27.258;2023-04-01T09:19:21;99004.75;;;22.46;69.27
12349;BME280;5974;42.710;27.258;2023-04-01T09:25:12;99000.81;;;23.70;68.94
12349;BME280;5974;42.710;27.258;2023-04-01T09:27:45;98983.78;;;23.08;70.60
12349;BME280;5974;42.710;27.258;2023-04-01T09:30:32;98977.69;;;23.54;67.13
12349;BME280;5974;42.710;27.258;2023-04-01T09:36:10;98973.63;;;24.05;62.64
12349;BME280;5974;42.710;27.258;2023-04-01T09:38:50;98977.03;;;23.52;63.99
12349;BME280;5974;42.710;27.258;2023-04-01T09:41:29;98965.78;;;21.79;65.59
12349;BME280;5974;42.710;27.258;2023-04-01T09:44:13;98968.13;;;22.40;66.45
12349;BME280;5974;42.710;27.258;2023-04-01T09:46:55;98972.81;;;22.71;66.50
12349;BME280;5974;42.710;27.258;2023-04-01T09:49:50;98961.13;;;22.31;66.86
12349;BME280;5974;42.710;27.258;2023-04-01T09:52:32;98954.47;;;21.35;69.61
12349;BME280;5974;42.710;27.258;2023-04-01T09:55:21;98959.63;;;21.71;69.60
12349;BME280;5974;42.710;27.258;2023-04-01T10:07:47;98946.47;;;22.43;69.04
12349;BME280;5974;42.710;27.258;2023-04-01T10:20:02;98929.03;;;21.75;73.96
12349;BME280;5974;42.710;27.258;2023-04-01T10:22:53;98921.72;;;21.77;74.04
12349;BME280;5974;42.710;27.258;2023-04-01T10:25:55;98902.25;;;21.00;75.32
12349;BME280;5974;42.710;27.258;2023-04-01T10:28:40;98893.91;;;21.13;76.32
12349;BME280;5974;42.710;27.258;2023-04-01T10:34:35;98897.50;;;22.04;72.88
12349;BME280;5974;42.710;27.258;2023-04-01T10:37:18;98900.03;;;22.78;70.33
12349;BME280;5974;42.710;27.258;2023-04-01T10:40:18;98892.03;;;22.38;68.45
12349;BME280;5974;42.710;27.258;2023-04-01T10:43:31;98899.69;;;22.08;69.23
12349;BME280;5974;42.710;27.258;2023-04-01T10:49:33;98888.06;;;22.18;68.35
12349;BME280;5974;42.710;27.258;2023-04-01T10:52:52;98876.38;;;22.75;66.67
12349;BME280;5974;42.710;27.258;2023-04-01T10:55:36;98876.41;;;23.14;67.22
12349;BME280;5974;42.710;27.258;2023-04-01T10:58:35;98874.94;;;23.11;64.81
12349;BME280;5974;42.710;27.258;2023-04-01T11:04:39;98857.06;;;21.92;68.72
12349;BME280;5974;42.710;27.258;2023-04-01T11:07:50;98843.41;;;22.76;67.74
12349;BME280;5974;42.710;27.258;2023-04-01T11:11:02;98834.38;;;22.85;67.36
12349;BME280;5974;42.710;27.258;2023-04-01T11:14:18;98829.69;;;23.26;65.91
12349;BME280;5974;42.710;27.258;2023-04-01T11:20:07;98820.25;;;22.60;67.65
12349;BME280;5974;42.710;27.258;2023-04-01T11:22:55;98818.44;;;22.69;66.76
12349;BME280;5974;42.710;27.258;2023-04-01T11:25:45;98807.25;;;22.74;65.95
12349;BME280;5974;42.710;27.258;2023-04-01T11:28:42;98805.66;;;22.00;67.86
12349;BME280;5974;42.710;27.258;2023-04-01T11:31:29;98814.81;;;22.13;68.58
12349;BME280;5974;42.710;27.258;2023-04-01T11:34:10;98820.13;;;22.38;68.23
12349;BME280;5974;42.710;27.258;2023-04-01T11:36:47;98792.00;;;22.27;68.47
12349;BME280;5974;42.710;27.258;2023-04-01T11:39:24;98791.78;;;22.53;68.32
12349;BME280;5974;42.710;27.258;2023-04-01T11:42:04;98775.97;;;22.43;67.82
12349;BME280;5974;42.710;27.258;2023-04-01T11:44:43;98787.25;;;22.61;68.52
12349;BME280;5974;42.710;27.258;2023-04-01T11:47:22;98785.00;;;22.42;68.50
12349;BME280;5974;42.710;27.258;2023-04-01T11:50:03;98782.78;;;22.70;67.93
12349;BME280;5974;42.710;27.258;2023-04-01T11:52:51;98783.97;;;22.51;68.04
12349;BME280;5974;42.710;27.258;2023-04-01T11:55:28;98779.72;;;22.10;70.05
12349;BME280;5974;42.710;27.258;2023-04-01T11:58:11;98781.38;;;22.03;69.95
12349;BME280;5974;42.710;27.258;2023-04-01T12:01:07;98765.88;;;22.23;69.65
12349;BME280;5974;42.710;27.258;2023-04-01T12:06:44;98760.75;;;22.84;68.06
12349;BME280;5974;42.710;27.258;2023-04-01T12:09:19;98761.53;;;22.22;70.28
12349;BME280;5974;42.710;27.258;2023-04-01T12:11:56;98765.00;;;22.54;69.68
12349;BME280;5974;42.710;27.258;2023-04-01T12:14:31;98760.38;;;22.87;68.56
12349;BME280;5974;42.710;27.258;2023-04-01T12:17:07;98762.59;;;23.14;68.32
12349;BME280;5974;42.710;27.258;2023-04-01T12:19:42;98745.78;;;21.72;71.24
12349;BME280;5974;42.710;27.258;2023-04-01T12:22:27;98746.25;;;22.15;70.43
12349;BME280;5974;42.710;27.258;2023-04-01T12:25:14;98746.47;;;21.90;70.92
12349;BME280;5974;42.710;27.258;2023-04-01T12:27:54;98749.59;;;21.53;71.79
12349;BME280;5974;42.710;27.258;2023-04-01T12:30:42;98755.47;;;21.15;73.00
12349;BME280;5974;42.710;27.258;2023-04-01T12:36:10;98735.31;;;20.54;75.33
12349;BME280;5974;42.710;27.258;2023-04-01T12:38:56;98740.56;;;20.80;75.22
12349;BME280;5974;42.710;27.258;2023-04-01T12:41:32;98741.03;;;21.09;74.72
12349;BME280;5974;42.710;27.258;2023-04-01T12:44:21;98735.44;;;21.36;74.67
12349;BME280;5974;42.710;27.258;2023-04-01T12:47:10;98731.28;;;21.66;73.44
12349;BME280;5974;42.710;27.258;2023-04-01T12:52:48;98713.00;;;21.79;71.35
12349;BME280;5974;42.710;27.258;2023-04-01T12:55:40;98706.69;;;21.96;73.29
12349;BME280;5974;42.710;27.258;2023-04-01T13:01:29;98692.66;;;22.19;70.48
12349;BME280;5974;42.710;27.258;2023-04-01T13:07:18;98676.41;;;21.08;74.72
12349;BME280;5974;42.710;27.258;2023-04-01T13:09:54;98667.69;;;20.98;75.34
12349;BME280;5974;42.710;27.258;2023-04-01T13:12:34;98682.53;;;21.17;75.56
12349;BME280;5974;42.710;27.258;2023-04-01T13:15:11;98678.69;;;21.03;76.10
12349;BME280;5974;42.710;27.258;2023-04-01T13:17:47;98672.34;;;20.96;76.04
12349;BME280;5974;42.710;27.258;2023-04-01T13:20:23;98679.38;;;20.55;77.37
12349;BME280;5974;42.710;27.258;2023-04-01T13:23:05;98677.53;;;20.48;77.84
12349;BME280;5974;42.710;27.258;2023-04-01T13:25:39;98635.19;;;20.38;78.13
12349;BME280;5974;42.710;27.258;2023-04-01T13:28:15;98668.97;;;20.70;77.66
12349;BME280;5974;42.710;27.258;2023-04-01T13:30:50;98661.41;;;20.16;79.91
12349;BME280;5974;42.710;27.258;2023-04-01T13:33:26;98671.84;;;20.43;79.43
12349;BME280;5974;42.710;27.258;2023-04-01T13:36:08;98664.59;;;20.19;79.61
12349;BME280;5974;42.710;27.258;2023-04-01T13:41:45;98680.00;;;20.49;76.81
12349;BME280;5974;42.710;27.258;2023-04-01T13:44:18;98681.03;;;20.57;76.41
12349;BME280;5974;42.710;27.258;2023-04-01T13:46:59;98679.22;;;20.23;77.44
12349;BME280;5974;42.710;27.258;2023-04-01T13:49:50;98686.28;;;20.82;76.42
12349;BME280;5974;42.710;27.258;2023-04-01T13:52:29;98677.06;;;21.27;75.15
12349;BME280;5974;42.710;27.258;2023-04-01T13:55:22;98654.22;;;20.92;73.79
12349;BME280;5974;42.710;27.258;2023-04-01T13:58:07;98671.09;;;21.57;73.79
12349;BME280;5974;42.710;27.258;2023-04-01T14:00:47;98667.94;;;21.29;73.79
12349;BME280;5974;42.710;27.258;2023-04-01T14:03:30;98662.44;;;20.48;75.45
12349;BME280;5974;42.710;27.258;2023-04-01T14:06:19;98657.47;;;20.62;76.53
12349;BME280;5974;42.710;27.258;2023-04-01T14:09:10;98653.50;;;20.58;76.67
12349;BME280;5974;42.710;27.258;2023-04-01T14:11:45;98663.13;;;20.25;77.86
12349;BME280;5974;42.710;27.258;2023-04-01T14:14:22;98657.22;;;20.05;79.44
12349;BME280;5974;42.710;27.258;2023-04-01T14:17:02;98651.34;;;19.93;79.77
12349;BME280;5974;42.710;27.258;2023-04-01T14:19:43;98636.22;;;20.45;78.49
12349;BME280;5974;42.710;27.258;2023-04-01T14:22:23;98640.44;;;20.72;78.08
12349;BME280;5974;42.710;27.258;2023-04-01T14:25:01;98641.34;;;20.21;79.71
12349;BME280;5974;42.710;27.258;2023-04-01T14:27:41;98632.59;;;20.71;79.01
12349;BME280;5974;42.710;27.258;2023-04-01T14:30:30;98632.66;;;20.29;80.14
12349;BME280;5974;42.710;27.258;2023-04-01T14:33:05;98626.38;;;20.04;81.37
12349;BME280;5974;42.710;27.258;2023-04-01T14:35:46;98627.28;;;20.63;79.08
12349;BME280;5974;42.710;27.258;2023-04-01T14:38:28;98619.88;;;20.82;77.93
12349;BME280;5974;42.710;27.258;2023-04-01T14:41:06;98616.78;;;20.53;80.01
12349;BME280;5974;42.710;27.258;2023-04-01T14:44:10;98607.91;;;20.78;79.00
12349;BME280;5974;42.710;27.258;2023-04-01T14:49:47;98599.94;;;20.94;76.41
12349;BME280;5974;42.710;27.258;2023-04-01T14:52:23;98604.97;;;21.22;75.96
12349;BME280;5974;42.710;27.258;2023-04-01T14:54:53;98601.91;;;20.92;77.61
12349;BME280;5974;42.710;27.258;2023-04-01T14:57:24;98602.00;;;20.42;77.85